sensor_id;sensor_type;location;lat;lon;timestamp;temperature;humidity
37446;DHT22;23307;51.136;14.942;2023-07-22T00:00:58;18.10;99.90
37446;DHT22;23307;51.136;14.942;2023-07-22T00:03:24;18.10;99.90
37446;DHT22;23307;51.136;14.942;2023-07-22T00:06:05;18.10;99.90
37446;DHT22;23307;51.136;14.942;2023-07-22T00:08:31;18.00;99.90
37446;DHT22;23307;51.136;14.942;2023-07-22T00:10:57;18.00;99.90
37446;DHT22;23307;51.136;14.942;2023-07-22T00:13:23;18.00;99.90
37446;DHT22;23307;51.136;14.942;2023-07-22T00:15:48;18.00;99.90
37446;DHT22;23307;51.136;14.942;2023-07-22T00:18:15;18.00;99.90
37446;DHT22;23307;51.136;14.942;2023-07-22T00:20:41;18.00;99.90
37446;DHT22;23307;51.136;14.942;2023-07-22T00:23:07;18.00;99.90
37446;DHT22;23307;51.136;14.942;2023-07-22T00:25:32;18.00;99.90
37446;DHT22;23307;51.136;14.942;2023-07-22T00:27:58;17.90;99.90
37446;DHT22;23307;51.136;14.942;2023-07-22T00:30:23;17.90;99.90
37446;DHT22;23307;51.136;14.942;2023-07-22T00:32:50;17.90;99.90
37446;DHT22;23307;51.136;14.942;2023-07-22T00:35:16;17.80;99.90
37446;DHT22;23307;51.136;14.942;2023-07-22T00:37:41;17.80;99.90
37446;DHT22;23307;51.136;14.942;2023-07-22T00:40:07;17.80;99.90
37446;DHT22;23307;51.136;14.942;2023-07-22T00:42:38;17.80;99.90
37446;DHT22;23307;51.136;14.942;2023-07-22T00:45:04;17.80;99.90
37446;DHT22;23307;51.136;14.942;2023-07-22T00:47:29;17.80;99.90
37446;DHT22;23307;51.136;14.942;2023-07-22T00:49:56;17.70;99.90
37446;DHT22;23307;51.136;14.942;2023-07-22T00:52:21;17.70;99.90
37446;DHT22;23307;51.136;14.942;2023-07-22T00:54:47;17.70;99.90
37446;DHT22;23307;51.136;14.942;2023-07-22T00:57:13;17.70;99.90
37446;DHT22;23307;51.136;14.942;2023-07-22T00:59:39;17.70;99.90
37446;DHT22;23307;51.136;14.942;2023-07-22T01:02:06;17.70;99.90
37446;DHT22;23307;51.136;14.942;2023-07-22T01:04:33;17.60;99.90
37446;DHT22;23307;51.136;14.942;2023-07-22T01:07:01;17.60;99.90
37446;DHT22;23307;51.136;14.942;2023-07-22T01:09:39;17.60;99.90
37446;DHT22;23307;51.136;14.942;2023-07-22T01:12:06;17.60;99.90
37446;DHT22;23307;51.136;14.942;2023-07-22T01:14:36;17.60;99.90
37446;DHT22;23307;51.136;14.942;2023-07-22T01:17:03;17.60;99.90
37446;DHT22;23307;51.136;14.942;2023-07-22T01:19:29;17.60;99.90
37446;DHT22;23307;51.136;14.942;2023-07-22T01:21:57;17.60;99.90
37446;DHT22;23307;51.136;14.942;2023-07-22T01:24:23;17.50;99.90
37446;DHT22;23307;51.136;14.942;2023-07-22T01:26:49;17.50;99.90
37446;DHT22;23307;51.136;14.942;2023-07-22T01:29:15;17.50;99.90
37446;DHT22;23307;51.136;14.942;2023-07-22T01:31:41;17.50;99.90
37446;DHT22;23307;51.136;14.942;2023-07-22T01:34:06;17.40;99.90
37446;DHT22;23307;51.136;14.942;2023-07-22T01:36:32;17.40;99.90
37446;DHT22;23307;51.136;14.942;2023-07-22T01:38:57;17.40;99.90
37446;DHT22;23307;51.136;14.942;2023-07-22T01:41:23;17.40;99.90
37446;DHT22;23307;51.136;14.942;2023-07-22T01:43:49;17.40;99.90
37446;DHT22;23307;51.136;14.942;2023-07-22T01:46:14;17.30;99.90
37446;DHT22;23307;51.136;14.942;2023-07-22T01:48:40;17.30;99.90
37446;DHT22;23307;51.136;14.942;2023-07-22T01:51:05;17.20;99.90
37446;DHT22;23307;51.136;14.942;2023-07-22T01:53:31;17.20;99.90
37446;DHT22;23307;51.136;14.942;2023-07-22T01:55:57;17.20;99.90
37446;DHT22;23307;51.136;14.942;2023-07-22T01:58:23;17.20;99.90
37446;DHT22;23307;51.136;14.942;2023-07-22T02:00:51;17.20;99.90
37446;DHT22;23307;51.136;14.942;2023-07-22T02:03:17;17.10;99.90
37446;DHT22;23307;51.136;14.942;2023-07-22T02:05:42;17.10;99.90
37446;DHT22;23307;51.136;14.942;2023-07-22T02:08:09;17.10;99.90
37446;DHT22;23307;51.136;14.942;2023-07-22T02:10:35;17.00;99.90
37446;DHT22;23307;51.136;14.942;2023-07-22T02:13:01;17.00;99.90
37446;DHT22;23307;51.136;14.942;2023-07-22T02:15:28;16.90;99.90
37446;DHT22;23307;51.136;14.942;2023-07-22T02:17:53;16.90;99.90
37446;DHT22;23307;51.136;14.942;2023-07-22T02:20:20;16.90;99.90
37446;DHT22;23307;51.136;14.942;2023-07-22T02:22:46;16.90;99.90
37446;DHT22;23307;51.136;14.942;2023-07-22T02:25:11;16.90;99.90
37446;DHT22;23307;51.136;14.942;2023-07-22T02:27:37;16.80;99.90
37446;DHT22;23307;51.136;14.942;2023-07-22T02:30:05;16.80;99.90
37446;DHT22;23307;51.136;14.942;2023-07-22T02:32:31;16.80;99.90
37446;DHT22;23307;51.136;14.942;2023-07-22T02:34:57;16.80;99.90
37446;DHT22;23307;51.136;14.942;2023-07-22T02:37:22;16.80;99.90
37446;DHT22;23307;51.136;14.942;2023-07-22T02:39:48;16.80;99.90
37446;DHT22;23307;51.136;14.942;2023-07-22T02:42:13;16.70;99.90
37446;DHT22;23307;51.136;14.942;2023-07-22T02:44:39;16.70;99.90
37446;DHT22;23307;51.136;14.942;2023-07-22T02:47:04;16.70;99.90
37446;DHT22;23307;51.136;14.942;2023-07-22T02:49:30;16.70;99.90
37446;DHT22;23307;51.136;14.942;2023-07-22T02:51:56;16.60;99.90
37446;DHT22;23307;51.136;14.942;2023-07-22T02:54:21;16.60;99.90
37446;DHT22;23307;51.136;14.942;2023-07-22T02:56:47;16.60;99.90
37446;DHT22;23307;51.136;14.942;2023-07-22T02:59:13;16.60;99.90
37446;DHT22;23307;51.136;14.942;2023-07-22T03:01:38;16.60;99.90
37446;DHT22;23307;51.136;14.942;2023-07-22T03:04:04;16.50;99.90
37446;DHT22;23307;51.136;14.942;2023-07-22T03:06:30;16.40;99.90
37446;DHT22;23307;51.136;14.942;2023-07-22T03:08:56;16.40;99.90
37446;DHT22;23307;51.136;14.942;2023-07-22T03:11:23;16.30;99.90
37446;DHT22;23307;51.136;14.942;2023-07-22T03:13:50;16.30;99.90
37446;DHT22;23307;51.136;14.942;2023-07-22T03:16:16;16.20;99.90
37446;DHT22;23307;51.136;14.942;2023-07-22T03:18:41;16.30;99.90
37446;DHT22;23307;51.136;14.942;2023-07-22T03:21:08;16.30;99.90
37446;DHT22;23307;51.136;14.942;2023-07-22T03:23:34;16.20;99.90
37446;DHT22;23307;51.136;14.942;2023-07-22T03:25:59;16.20;99.90
37446;DHT22;23307;51.136;14.942;2023-07-22T03:28:26;16.20;99.90
37446;DHT22;23307;51.136;14.942;2023-07-22T03:30:51;16.20;99.90
37446;DHT22;23307;51.136;14.942;2023-07-22T03:33:18;16.10;99.90
37446;DHT22;23307;51.136;14.942;2023-07-22T03:35:43;16.10;99.90
37446;DHT22;23307;51.136;14.942;2023-07-22T03:38:13;16.10;99.90
37446;DHT22;23307;51.136;14.942;2023-07-22T03:40:38;16.10;99.90
37446;DHT22;23307;51.136;14.942;2023-07-22T03:43:04;16.10;99.90
37446;DHT22;23307;51.136;14.942;2023-07-22T03:45:30;16.10;99.90
37446;DHT22;23307;51.136;14.942;2023-07-22T03:48:00;16.10;99.90
37446;DHT22;23307;51.136;14.942;2023-07-22T03:50:26;16.10;99.90
37446;DHT22;23307;51.136;14.942;2023-07-22T03:52:52;16.00;99.90
37446;DHT22;23307;51.136;14.942;2023-07-22T03:55:17;16.00;99.90
37446;DHT22;23307;51.136;14.942;2023-07-22T03:57:45;16.00;99.90
37446;DHT22;23307;51.136;14.942;2023-07-22T04:00:11;16.10;99.90
37446;DHT22;23307;51.136;14.942;2023-07-22T04:02:36;16.00;99.90
37446;DHT22;23307;51.136;14.942;2023-07-22T04:05:02;16.10;99.90
37446;DHT22;23307;51.136;14.942;2023-07-22T04:07:28;16.10;99.90
37446;DHT22;23307;51.136;14.942;2023-07-22T04:09:53;16.10;99.90
37446;DHT22;23307;51.136;14.942;2023-07-22T04:12:19;16.20;99.90
37446;DHT22;23307;51.136;14.942;2023-07-22T04:14:44;16.10;99.90
37446;DHT22;23307;51.136;14.942;2023-07-22T04:17:10;16.20;99.90
37446;DHT22;23307;51.136;14.942;2023-07-22T04:19:36;16.30;99.90
37446;DHT22;23307;51.136;14.942;2023-07-22T04:22:02;16.30;99.90
37446;DHT22;23307;51.136;14.942;2023-07-22T04:24:32;16.30;99.90
37446;DHT22;23307;51.136;14.942;2023-07-22T04:26:59;16.40;99.90
37446;DHT22;23307;51.136;14.942;2023-07-22T04:29:24;16.50;99.90
37446;DHT22;23307;51.136;14.942;2023-07-22T04:31:50;16.50;99.90
37446;DHT22;23307;51.136;14.942;2023-07-22T04:34:15;16.60;99.90
37446;DHT22;23307;51.136;14.942;2023-07-22T04:36:41;16.60;99.90
37446;DHT22;23307;51.136;14.942;2023-07-22T04:39:06;16.70;99.90
37446;DHT22;23307;51.136;14.942;2023-07-22T04:41:33;16.70;99.90
37446;DHT22;23307;51.136;14.942;2023-07-22T04:43:58;16.80;99.90
37446;DHT22;23307;51.136;14.942;2023-07-22T04:46:25;16.80;99.90
37446;DHT22;23307;51.136;14.942;2023-07-22T04:48:53;16.90;99.90
37446;DHT22;23307;51.136;14.942;2023-07-22T04:51:19;16.90;99.90
37446;DHT22;23307;51.136;14.942;2023-07-22T04:53:45;16.80;99.90
37446;DHT22;23307;51.136;14.942;2023-07-22T04:56:10;16.80;99.90
37446;DHT22;23307;51.136;14.942;2023-07-22T04:58:36;16.80;99.90
37446;DHT22;23307;51.136;14.942;2023-07-22T05:01:01;16.70;99.90
37446;DHT22;23307;51.136;14.942;2023-07-22T05:03:27;16.70;99.90
37446;DHT22;23307;51.136;14.942;2023-07-22T05:05:52;16.80;99.90
37446;DHT22;23307;51.136;14.942;2023-07-22T05:08:18;16.80;99.90
37446;DHT22;23307;51.136;14.942;2023-07-22T05:10:44;16.80;99.90
37446;DHT22;23307;51.136;14.942;2023-07-22T05:13:09;16.80;99.90
37446;DHT22;23307;51.136;14.942;2023-07-22T05:15:35;16.80;99.90
37446;DHT22;23307;51.136;14.942;2023-07-22T05:18:01;16.80;99.90
37446;DHT22;23307;51.136;14.942;2023-07-22T05:20:26;16.70;99.90
37446;DHT22;23307;51.136;14.942;2023-07-22T05:22:52;16.60;99.90
37446;DHT22;23307;51.136;14.942;2023-07-22T05:25:17;16.60;99.90
37446;DHT22;23307;51.136;14.942;2023-07-22T05:27:43;16.60;99.90
37446;DHT22;23307;51.136;14.942;2023-07-22T05:30:09;16.60;99.90
37446;DHT22;23307;51.136;14.942;2023-07-22T05:32:35;16.70;99.90
37446;DHT22;23307;51.136;14.942;2023-07-22T05:35:00;16.70;99.90
37446;DHT22;23307;51.136;14.942;2023-07-22T05:37:27;16.70;99.90
37446;DHT22;23307;51.136;14.942;2023-07-22T05:39:53;16.70;99.90
37446;DHT22;23307;51.136;14.942;2023-07-22T05:42:18;16.70;99.90
37446;DHT22;23307;51.136;14.942;2023-07-22T05:44:44;16.80;99.90
37446;DHT22;23307;51.136;14.942;2023-07-22T05:47:10;16.80;99.90
37446;DHT22;23307;51.136;14.942;2023-07-22T05:49:35;16.80;99.90
37446;DHT22;23307;51.136;14.942;2023-07-22T05:52:01;16.90;99.90
37446;DHT22;23307;51.136;14.942;2023-07-22T05:54:26;16.90;99.90
37446;DHT22;23307;51.136;14.942;2023-07-22T05:56:52;17.00;99.90
37446;DHT22;23307;51.136;14.942;2023-07-22T05:59:17;17.00;99.90
37446;DHT22;23307;51.136;14.942;2023-07-22T06:01:43;17.10;99.90
37446;DHT22;23307;51.136;14.942;2023-07-22T06:04:09;17.10;99.90
37446;DHT22;23307;51.136;14.942;2023-07-22T06:06:35;17.10;99.90
37446;DHT22;23307;51.136;14.942;2023-07-22T06:09:01;17.10;99.90
37446;DHT22;23307;51.136;14.942;2023-07-22T06:11:26;17.10;99.90
37446;DHT22;23307;51.136;14.942;2023-07-22T06:13:52;17.20;99.90
37446;DHT22;23307;51.136;14.942;2023-07-22T06:16:17;17.20;99.90
37446;DHT22;23307;51.136;14.942;2023-07-22T06:18:42;17.20;99.90
37446;DHT22;23307;51.136;14.942;2023-07-22T06:21:08;17.30;99.90
37446;DHT22;23307;51.136;14.942;2023-07-22T06:23:34;17.40;99.90
37446;DHT22;23307;51.136;14.942;2023-07-22T06:25:59;17.50;99.90
37446;DHT22;23307;51.136;14.942;2023-07-22T06:28:25;17.60;99.90
37446;DHT22;23307;51.136;14.942;2023-07-22T06:30:51;17.70;99.90
37446;DHT22;23307;51.136;14.942;2023-07-22T06:33:16;17.80;99.90
37446;DHT22;23307;51.136;14.942;2023-07-22T06:35:42;17.90;99.90
37446;DHT22;23307;51.136;14.942;2023-07-22T06:38:07;18.00;99.90
37446;DHT22;23307;51.136;14.942;2023-07-22T06:40:33;18.10;99.90
37446;DHT22;23307;51.136;14.942;2023-07-22T06:42:58;18.20;99.90
37446;DHT22;23307;51.136;14.942;2023-07-22T06:45:24;18.20;99.90
37446;DHT22;23307;51.136;14.942;2023-07-22T06:47:50;18.10;99.90
37446;DHT22;23307;51.136;14.942;2023-07-22T06:50:15;18.00;99.90
37446;DHT22;23307;51.136;14.942;2023-07-22T06:52:41;18.00;99.90
37446;DHT22;23307;51.136;14.942;2023-07-22T06:55:06;18.20;99.90
37446;DHT22;23307;51.136;14.942;2023-07-22T06:57:33;18.40;99.90
37446;DHT22;23307;51.136;14.942;2023-07-22T06:59:59;18.30;99.90
37446;DHT22;23307;51.136;14.942;2023-07-22T07:02:24;18.40;99.90
37446;DHT22;23307;51.136;14.942;2023-07-22T07:04:50;18.40;99.90
37446;DHT22;23307;51.136;14.942;2023-07-22T07:07:16;18.30;99.90
37446;DHT22;23307;51.136;14.942;2023-07-22T07:09:42;18.30;99.90
37446;DHT22;23307;51.136;14.942;2023-07-22T07:12:08;18.40;99.90
37446;DHT22;23307;51.136;14.942;2023-07-22T07:14:34;18.60;99.90
37446;DHT22;23307;51.136;14.942;2023-07-22T07:17:00;18.70;99.90
37446;DHT22;23307;51.136;14.942;2023-07-22T07:19:27;18.90;99.90
37446;DHT22;23307;51.136;14.942;2023-07-22T07:21:52;19.00;99.90
37446;DHT22;23307;51.136;14.942;2023-07-22T07:24:18;19.10;99.90
37446;DHT22;23307;51.136;14.942;2023-07-22T07:26:44;19.20;99.90
37446;DHT22;23307;51.136;14.942;2023-07-22T07:29:10;19.20;99.90
37446;DHT22;23307;51.136;14.942;2023-07-22T07:31:35;19.30;99.90
37446;DHT22;23307;51.136;14.942;2023-07-22T07:34:01;19.30;99.90
37446;DHT22;23307;51.136;14.942;2023-07-22T07:36:26;19.30;99.90
37446;DHT22;23307;51.136;14.942;2023-07-22T07:38:52;19.30;99.90
37446;DHT22;23307;51.136;14.942;2023-07-22T07:41:18;19.30;99.90
37446;DHT22;23307;51.136;14.942;2023-07-22T07:43:44;19.30;99.90
37446;DHT22;23307;51.136;14.942;2023-07-22T07:46:20;19.50;99.90
37446;DHT22;23307;51.136;14.942;2023-07-22T07:48:51;19.80;99.90
37446;DHT22;23307;51.136;14.942;2023-07-22T07:51:19;19.80;99.90
37446;DHT22;23307;51.136;14.942;2023-07-22T07:53:45;20.00;99.90
37446;DHT22;23307;51.136;14.942;2023-07-22T07:56:15;19.90;99.90
37446;DHT22;23307;51.136;14.942;2023-07-22T07:58:42;19.90;99.90
37446;DHT22;23307;51.136;14.942;2023-07-22T08:01:08;20.00;99.90
37446;DHT22;23307;51.136;14.942;2023-07-22T08:03:35;20.10;99.90
37446;DHT22;23307;51.136;14.942;2023-07-22T08:06:01;20.20;99.90
37446;DHT22;23307;51.136;14.942;2023-07-22T08:08:27;20.20;99.90
37446;DHT22;23307;51.136;14.942;2023-07-22T08:11:13;20.30;99.90
37446;DHT22;23307;51.136;14.942;2023-07-22T08:13:39;20.50;99.90
37446;DHT22;23307;51.136;14.942;2023-07-22T08:16:09;20.60;99.90
37446;DHT22;23307;51.136;14.942;2023-07-22T08:18:36;20.70;99.90
37446;DHT22;23307;51.136;14.942;2023-07-22T08:21:03;20.90;99.90
37446;DHT22;23307;51.136;14.942;2023-07-22T08:23:29;21.20;99.90
37446;DHT22;23307;51.136;14.942;2023-07-22T08:25:55;21.40;99.90
37446;DHT22;23307;51.136;14.942;2023-07-22T08:28:21;21.60;99.90
37446;DHT22;23307;51.136;14.942;2023-07-22T08:30:48;21.70;99.90
37446;DHT22;23307;51.136;14.942;2023-07-22T08:33:14;21.40;98.60
37446;DHT22;23307;51.136;14.942;2023-07-22T08:35:40;21.30;99.20
37446;DHT22;23307;51.136;14.942;2023-07-22T08:38:08;21.50;98.80
37446;DHT22;23307;51.136;14.942;2023-07-22T08:40:38;21.60;99.40
37446;DHT22;23307;51.136;14.942;2023-07-22T08:43:06;21.80;98.60
37446;DHT22;23307;51.136;14.942;2023-07-22T08:45:33;22.00;98.80
37446;DHT22;23307;51.136;14.942;2023-07-22T08:48:06;22.00;97.30
37446;DHT22;23307;51.136;14.942;2023-07-22T08:50:46;21.60;97.10
37446;DHT22;23307;51.136;14.942;2023-07-22T08:53:15;21.50;98.00
37446;DHT22;23307;51.136;14.942;2023-07-22T08:55:42;21.50;97.10
37446;DHT22;23307;51.136;14.942;2023-07-22T08:58:11;21.40;96.60
37446;DHT22;23307;51.136;14.942;2023-07-22T09:00:38;21.40;96.50
37446;DHT22;23307;51.136;14.942;2023-07-22T09:03:05;21.60;96.60
37446;DHT22;23307;51.136;14.942;2023-07-22T09:05:35;21.70;96.20
37446;DHT22;23307;51.136;14.942;2023-07-22T09:08:06;21.90;95.60
37446;DHT22;23307;51.136;14.942;2023-07-22T09:10:32;22.10;94.80
37446;DHT22;23307;51.136;14.942;2023-07-22T09:13:00;22.30;95.30
37446;DHT22;23307;51.136;14.942;2023-07-22T09:15:26;22.50;93.70
37446;DHT22;23307;51.136;14.942;2023-07-22T09:17:52;22.50;94.20
37446;DHT22;23307;51.136;14.942;2023-07-22T09:20:17;22.60;92.50
37446;DHT22;23307;51.136;14.942;2023-07-22T09:22:45;22.60;92.20
37446;DHT22;23307;51.136;14.942;2023-07-22T09:25:22;22.80;91.60
37446;DHT22;23307;51.136;14.942;2023-07-22T09:27:53;22.60;90.40
37446;DHT22;23307;51.136;14.942;2023-07-22T09:32:52;22.40;90.70
37446;DHT22;23307;51.136;14.942;2023-07-22T09:35:19;22.60;90.50
37446;DHT22;23307;51.136;14.942;2023-07-22T09:37:45;22.20;89.80
37446;DHT22;23307;51.136;14.942;2023-07-22T09:42:50;22.30;91.40
37446;DHT22;23307;51.136;14.942;2023-07-22T09:45:17;22.50;90.10
37446;DHT22;23307;51.136;14.942;2023-07-22T09:47:45;22.40;89.70
37446;DHT22;23307;51.136;14.942;2023-07-22T09:50:13;22.40;89.40
37446;DHT22;23307;51.136;14.942;2023-07-22T09:52:47;22.20;89.10
37446;DHT22;23307;51.136;14.942;2023-07-22T09:55:15;21.80;88.90
37446;DHT22;23307;51.136;14.942;2023-07-22T09:57:45;21.90;90.70
37446;DHT22;23307;51.136;14.942;2023-07-22T10:00:12;22.40;90.40
37446;DHT22;23307;51.136;14.942;2023-07-22T10:02:41;22.40;88.60
37446;DHT22;23307;51.136;14.942;2023-07-22T10:05:13;22.50;89.30
37446;DHT22;23307;51.136;14.942;2023-07-22T10:07:43;22.50;89.70
37446;DHT22;23307;51.136;14.942;2023-07-22T10:10:11;22.50;87.60
37446;DHT22;23307;51.136;14.942;2023-07-22T10:12:39;22.40;88.10
37446;DHT22;23307;51.136;14.942;2023-07-22T10:15:06;22.50;88.40
37446;DHT22;23307;51.136;14.942;2023-07-22T10:17:33;22.80;90.00
37446;DHT22;23307;51.136;14.942;2023-07-22T10:19:59;23.40;87.60
37446;DHT22;23307;51.136;14.942;2023-07-22T10:22:25;23.70;86.00
37446;DHT22;23307;51.136;14.942;2023-07-22T10:24:52;23.80;83.20
37446;DHT22;23307;51.136;14.942;2023-07-22T10:27:19;23.70;82.70
37446;DHT22;23307;51.136;14.942;2023-07-22T10:29:54;23.50;82.50
37446;DHT22;23307;51.136;14.942;2023-07-22T10:32:20;23.60;83.70
37446;DHT22;23307;51.136;14.942;2023-07-22T10:34:46;23.80;82.80
37446;DHT22;23307;51.136;14.942;2023-07-22T10:37:11;23.90;81.30
37446;DHT22;23307;51.136;14.942;2023-07-22T10:39:37;23.90;80.90
37446;DHT22;23307;51.136;14.942;2023-07-22T10:42:04;24.20;80.10
37446;DHT22;23307;51.136;14.942;2023-07-22T10:44:36;24.40;80.10
37446;DHT22;23307;51.136;14.942;2023-07-22T10:47:03;24.30;78.60
37446;DHT22;23307;51.136;14.942;2023-07-22T10:49:48;24.20;79.80
37446;DHT22;23307;51.136;14.942;2023-07-22T10:52:14;24.30;78.90
37446;DHT22;23307;51.136;14.942;2023-07-22T10:54:39;24.50;76.30
37446;DHT22;23307;51.136;14.942;2023-07-22T10:59:49;24.50;77.10
37446;DHT22;23307;51.136;14.942;2023-07-22T11:02:25;24.40;77.90
37446;DHT22;23307;51.136;14.942;2023-07-22T11:04:51;24.00;77.00
37446;DHT22;23307;51.136;14.942;2023-07-22T11:07:30;23.60;77.70
37446;DHT22;23307;51.136;14.942;2023-07-22T11:09:56;23.70;78.80
37446;DHT22;23307;51.136;14.942;2023-07-22T11:12:24;23.60;77.20
37446;DHT22;23307;51.136;14.942;2023-07-22T11:15:02;23.40;76.90
37446;DHT22;23307;51.136;14.942;2023-07-22T11:17:30;23.50;80.00
37446;DHT22;23307;51.136;14.942;2023-07-22T11:19:57;23.70;77.50
37446;DHT22;23307;51.136;14.942;2023-07-22T11:22:22;24.00;77.00
37446;DHT22;23307;51.136;14.942;2023-07-22T11:24:48;24.00;75.30
37446;DHT22;23307;51.136;14.942;2023-07-22T11:27:13;23.90;75.80
37446;DHT22;23307;51.136;14.942;2023-07-22T11:29:40;24.20;75.70
37446;DHT22;23307;51.136;14.942;2023-07-22T11:32:06;24.50;78.00
37446;DHT22;23307;51.136;14.942;2023-07-22T11:34:33;25.00;75.10
37446;DHT22;23307;51.136;14.942;2023-07-22T11:36:58;25.40;72.30
37446;DHT22;23307;51.136;14.942;2023-07-22T11:39:25;25.40;70.80
37446;DHT22;23307;51.136;14.942;2023-07-22T11:41:52;25.00;72.60
37446;DHT22;23307;51.136;14.942;2023-07-22T11:44:20;24.80;72.30
37446;DHT22;23307;51.136;14.942;2023-07-22T11:46:57;24.80;73.20
37446;DHT22;23307;51.136;14.942;2023-07-22T11:49:31;25.00;71.90
37446;DHT22;23307;51.136;14.942;2023-07-22T11:51:59;25.20;71.80
37446;DHT22;23307;51.136;14.942;2023-07-22T11:54:26;25.60;70.80
37446;DHT22;23307;51.136;14.942;2023-07-22T11:56:52;25.90;70.30
37446;DHT22;23307;51.136;14.942;2023-07-22T11:59:17;26.30;70.70
37446;DHT22;23307;51.136;14.942;2023-07-22T12:01:57;26.40;67.40
37446;DHT22;23307;51.136;14.942;2023-07-22T12:04:23;26.30;67.70
37446;DHT22;23307;51.136;14.942;2023-07-22T12:06:49;26.50;66.10
37446;DHT22;23307;51.136;14.942;2023-07-22T12:09:14;26.70;66.70
37446;DHT22;23307;51.136;14.942;2023-07-22T12:11:40;26.90;67.00
37446;DHT22;23307;51.136;14.942;2023-07-22T12:14:13;27.20;65.80
37446;DHT22;23307;51.136;14.942;2023-07-22T12:16:40;27.20;63.90
37446;DHT22;23307;51.136;14.942;2023-07-22T12:19:07;26.90;63.90
37446;DHT22;23307;51.136;14.942;2023-07-22T12:21:33;26.40;64.30
37446;DHT22;23307;51.136;14.942;2023-07-22T12:23:59;26.00;64.70
37446;DHT22;23307;51.136;14.942;2023-07-22T12:26:25;25.80;62.70
37446;DHT22;23307;51.136;14.942;2023-07-22T12:28:52;25.50;63.00
37446;DHT22;23307;51.136;14.942;2023-07-22T12:31:17;25.20;64.60
37446;DHT22;23307;51.136;14.942;2023-07-22T12:33:43;25.80;66.50
37446;DHT22;23307;51.136;14.942;2023-07-22T12:36:08;26.20;65.20
37446;DHT22;23307;51.136;14.942;2023-07-22T12:38:34;26.20;64.70
37446;DHT22;23307;51.136;14.942;2023-07-22T12:41:00;25.80;65.00
37446;DHT22;23307;51.136;14.942;2023-07-22T12:43:26;25.60;65.50
37446;DHT22;23307;51.136;14.942;2023-07-22T12:45:52;25.10;65.00
37446;DHT22;23307;51.136;14.942;2023-07-22T12:48:17;25.30;67.70
37446;DHT22;23307;51.136;14.942;2023-07-22T12:50:44;25.90;68.00
37446;DHT22;23307;51.136;14.942;2023-07-22T12:53:09;26.60;67.10
37446;DHT22;23307;51.136;14.942;2023-07-22T12:55:35;27.20;63.50
37446;DHT22;23307;51.136;14.942;2023-07-22T12:58:01;27.30;62.00
37446;DHT22;23307;51.136;14.942;2023-07-22T13:00:27;27.10;61.00
37446;DHT22;23307;51.136;14.942;2023-07-22T13:02:52;27.00;61.40
37446;DHT22;23307;51.136;14.942;2023-07-22T13:05:18;26.70;61.70
37446;DHT22;23307;51.136;14.942;2023-07-22T13:07:44;26.60;61.20
37446;DHT22;23307;51.136;14.942;2023-07-22T13:10:10;26.60;61.00
37446;DHT22;23307;51.136;14.942;2023-07-22T13:12:38;26.60;61.20
37446;DHT22;23307;51.136;14.942;2023-07-22T13:15:04;27.20;60.80
37446;DHT22;23307;51.136;14.942;2023-07-22T13:17:30;27.50;59.50
37446;DHT22;23307;51.136;14.942;2023-07-22T13:19:56;27.70;59.30
37446;DHT22;23307;51.136;14.942;2023-07-22T13:22:22;27.70;59.20
37446;DHT22;23307;51.136;14.942;2023-07-22T13:24:47;27.60;58.80
37446;DHT22;23307;51.136;14.942;2023-07-22T13:27:13;27.50;58.50
37446;DHT22;23307;51.136;14.942;2023-07-22T13:29:38;27.10;58.80
37446;DHT22;23307;51.136;14.942;2023-07-22T13:32:04;26.80;59.00
37446;DHT22;23307;51.136;14.942;2023-07-22T13:34:30;26.60;59.60
37446;DHT22;23307;51.136;14.942;2023-07-22T13:36:56;26.40;58.80
37446;DHT22;23307;51.136;14.942;2023-07-22T13:39:21;26.30;58.80
37446;DHT22;23307;51.136;14.942;2023-07-22T13:41:47;26.40;59.90
37446;DHT22;23307;51.136;14.942;2023-07-22T13:44:13;26.40;58.70
37446;DHT22;23307;51.136;14.942;2023-07-22T13:46:38;26.30;58.50
37446;DHT22;23307;51.136;14.942;2023-07-22T13:49:04;26.20;58.40
37446;DHT22;23307;51.136;14.942;2023-07-22T13:51:29;26.10;59.70
37446;DHT22;23307;51.136;14.942;2023-07-22T13:53:55;26.20;59.50
37446;DHT22;23307;51.136;14.942;2023-07-22T13:56:20;26.10;59.30
37446;DHT22;23307;51.136;14.942;2023-07-22T13:58:46;26.10;59.80
37446;DHT22;23307;51.136;14.942;2023-07-22T14:01:13;26.10;58.80
37446;DHT22;23307;51.136;14.942;2023-07-22T14:03:39;26.00;59.50
37446;DHT22;23307;51.136;14.942;2023-07-22T14:06:04;26.30;59.10
37446;DHT22;23307;51.136;14.942;2023-07-22T14:08:30;26.40;58.40
37446;DHT22;23307;51.136;14.942;2023-07-22T14:10:55;26.40;59.70
37446;DHT22;23307;51.136;14.942;2023-07-22T14:13:21;26.40;59.60
37446;DHT22;23307;51.136;14.942;2023-07-22T14:15:46;26.40;59.00
37446;DHT22;23307;51.136;14.942;2023-07-22T14:18:12;26.40;58.70
37446;DHT22;23307;51.136;14.942;2023-07-22T14:20:45;26.30;58.70
37446;DHT22;23307;51.136;14.942;2023-07-22T14:23:11;26.40;59.00
37446;DHT22;23307;51.136;14.942;2023-07-22T14:25:37;26.90;58.70
37446;DHT22;23307;51.136;14.942;2023-07-22T14:28:03;26.80;58.30
37446;DHT22;23307;51.136;14.942;2023-07-22T14:30:29;26.70;58.40
37446;DHT22;23307;51.136;14.942;2023-07-22T14:32:54;26.50;58.80
37446;DHT22;23307;51.136;14.942;2023-07-22T14:35:21;26.60;59.20
37446;DHT22;23307;51.136;14.942;2023-07-22T14:37:46;26.90;60.10
37446;DHT22;23307;51.136;14.942;2023-07-22T14:40:12;27.50;59.30
37446;DHT22;23307;51.136;14.942;2023-07-22T14:42:38;27.90;57.00
37446;DHT22;23307;51.136;14.942;2023-07-22T14:45:04;27.80;56.60
37446;DHT22;23307;51.136;14.942;2023-07-22T14:47:30;27.00;56.70
37446;DHT22;23307;51.136;14.942;2023-07-22T14:49:56;26.50;57.50
37446;DHT22;23307;51.136;14.942;2023-07-22T14:52:21;26.10;58.50
37446;DHT22;23307;51.136;14.942;2023-07-22T14:54:48;25.70;59.00
37446;DHT22;23307;51.136;14.942;2023-07-22T14:57:14;25.50;60.10
37446;DHT22;23307;51.136;14.942;2023-07-22T14:59:40;25.50;61.30
37446;DHT22;23307;51.136;14.942;2023-07-22T15:02:06;25.60;60.70
37446;DHT22;23307;51.136;14.942;2023-07-22T15:04:31;25.30;60.60
37446;DHT22;23307;51.136;14.942;2023-07-22T15:06:57;25.30;61.50
37446;DHT22;23307;51.136;14.942;2023-07-22T15:09:22;25.40;62.00
37446;DHT22;23307;51.136;14.942;2023-07-22T15:11:48;25.40;61.20
37446;DHT22;23307;51.136;14.942;2023-07-22T15:14:14;25.40;61.10
37446;DHT22;23307;51.136;14.942;2023-07-22T15:16:39;25.70;60.80
37446;DHT22;23307;51.136;14.942;2023-07-22T15:19:06;26.20;60.80